This is the latest recevied weather packets stored in our database for station/object WC4PEM. If no packets are shown the sender has not sent any weather packets the latest 1 day(s).
| Time | Temp. | Humidity | Pressure | Rain* | Wind** | Luminosity | Snow |
|---|---|---|---|---|---|---|---|
| 1778077765 | 28.33° C | 68% | 1016.7 hPa | 0 mm | - | - | - |
| 1778075665 | 27.22° C | 75% | 1016.5 hPa | 0 mm | - | - | - |
| 1778075484 | 26.67° C | 76% | 1016.5 hPa | 0 mm | - | - | - |
| 1778075065 | 26.67° C | 78% | 1016.6 hPa | 0 mm | - | - | - |
| 1778074877 | 26.67° C | 79% | 1016.6 hPa | 0 mm | - | - | - |
| 1778074765 | 26.67° C | 79% | 1016.6 hPa | 0 mm | - | - | - |
| 1778073265 | 25° C | 82% | 1016.3 hPa | 0 mm | - | - | - |
| 1778071761 | 22.22° C | 88% | 1016 hPa | 0 mm | - | - | - |
| 1778071465 | 23.33° C | 87% | 1016 hPa | 0 mm | - | - | - |
| 1778070026 | 22.22° C | 88% | 1015.9 hPa | 0 mm | - | - | - |
| 1778068579 | 20.56° C | 90% | 1015.7 hPa | 0 mm | - | - | - |
| 1778067303 | 20° C | 91% | 1015.6 hPa | 0 mm | - | - | - |
| 1778065466 | 19.44° C | 91% | 1015.4 hPa | 0 mm | - | - | - |
| 1778061959 | 19.44° C | 88% | 1015 hPa | 0 mm | - | - | - |
| 1778059879 | 19.44° C | 86% | 1014.7 hPa | 0 mm | - | - | - |
| 1778057966 | 19.44° C | 86% | 1014.8 hPa | 0 mm | - | - | - |
| 1778056766 | 19.44° C | 85% | 1014.9 hPa | 0 mm | - | - | - |
| 1778056466 | 19.44° C | 85% | 1014.8 hPa | 0 mm | - | - | - |
| 1778056166 | 19.44° C | 85% | 1014.7 hPa | 0 mm | - | - | - |
| 1778055866 | 19.44° C | 85% | 1014.8 hPa | 0 mm | - | - | - |
| 1778055729 | 19.44° C | 85% | 1015 hPa | 0 mm | - | - | - |
| 1778055566 | 19.44° C | 85% | 1015 hPa | 0 mm | - | - | - |
| 1778055266 | 19.44° C | 84% | 1014.9 hPa | 0 mm | - | - | - |
| 1778054966 | 19.44° C | 84% | 1014.9 hPa | 0 mm | - | - | - |
| 1778054666 | 19.44° C | 84% | 1014.8 hPa | 0 mm | - | - | - |
* Rain latest hour (hover to see other rain measurements)
** Current wind speed in m/s (hover to see current wind gust speed)